Time;durP1;ratioP1;P1;durP2;ratioP2;P2;SDS_P1;SDS_P2;PMS_P1;PMS_P2;Temp;Humidity;BMP_temperature;BMP_pressure;BME280_temperature;BME280_humidity;BME280_pressure;Samples;Min_cycle;Max_cycle;Signal;HPM_P1;HPM_P2
2022/02/17 00:00:52;;;;;;;;;;;;;;;19.90;45.89;99693.50;7283042;19;152944;-52
2022/02/17 00:03:19;;;;;;;;;;;;;;;19.90;45.49;99680.31;7283113;19;153157;-51
2022/02/17 00:05:47;;;;;;;;;;;;;;;19.88;45.48;99668.63;7290683;19;152123;-52
2022/02/17 00:08:18;;;;;;;;;;;;;;;19.87;45.41;99696.97;7282780;19;153883;-52
2022/02/17 00:10:45;;;;;;;;;;;;;;;19.85;45.91;99697.28;7282992;19;152133;-51
2022/02/17 00:13:12;;;;;;;;;;;;;;;19.85;45.66;99713.31;7282125;19;153924;-52
2022/02/17 00:15:39;;;;;;;;;;;;;;;19.81;45.95;99712.31;7283810;19;153212;-51
2022/02/17 00:18:21;;;;;;;;;;;;;;;19.81;45.75;99712.31;7285531;19;152787;-52
2022/02/17 00:20:49;;;;;;;;;;;;;;;19.78;46.11;99724.19;7285623;19;153792;-52
2022/02/17 00:23:16;;;;;;;;;;;;;;;19.76;46.09;99721.72;7281316;19;152967;-52
2022/02/17 00:25:46;;;;;;;;;;;;;;;19.75;46.08;99722.91;7285725;19;152069;-51
2022/02/17 00:28:16;;;;;;;;;;;;;;;19.73;46.24;99730.81;7290368;19;153419;-51
2022/02/17 00:30:43;;;;;;;;;;;;;;;19.72;46.29;99748.78;7281494;19;152156;-51
2022/02/17 00:33:10;;;;;;;;;;;;;;;19.69;45.96;99738.22;7281137;19;153730;-51
2022/02/17 00:35:42;;;;;;;;;;;;;;;19.69;46.35;99734.59;7283890;19;155123;-52
2022/02/17 00:38:09;;;;;;;;;;;;;;;19.67;46.27;99734.94;7284401;19;151922;-51
2022/02/17 00:40:36;;;;;;;;;;;;;;;19.65;46.30;99748.47;7283694;19;152218;-51
2022/02/17 00:43:03;;;;;;;;;;;;;;;19.65;46.74;99742.03;7278396;19;152324;-51
2022/02/17 00:45:30;;;;;;;;;;;;;;;19.65;47.02;99753.25;7282004;19;151843;-51
2022/02/17 00:47:57;;;;;;;;;;;;;;;19.62;46.65;99773.53;7282161;19;152381;-51
2022/02/17 00:50:24;;;;;;;;;;;;;;;19.59;47.03;99780.59;7288800;19;154198;-51
2022/02/17 00:52:51;;;;;;;;;;;;;;;19.60;47.31;99778.63;7283903;19;154929;-52
2022/02/17 00:55:18;;;;;;;;;;;;;;;19.59;47.06;99782.56;7281558;19;152468;-51
2022/02/17 00:57:45;;;;;;;;;;;;;;;19.57;47.18;99799.72;7281866;19;151898;-51
2022/02/17 01:00:12;;;;;;;;;;;;;;;19.55;47.21;99788.03;7284639;19;153659;-51
2022/02/17 01:02:39;;;;;;;;;;;;;;;19.54;47.33;99798.41;7282326;19;153924;-51
2022/02/17 01:05:06;;;;;;;;;;;;;;;19.54;47.84;99808.78;7285039;19;152383;-51
2022/02/17 01:07:33;;;;;;;;;;;;;;;19.51;47.83;99813.06;7281319;19;153741;-51
2022/02/17 01:09:59;;;;;;;;;;;;;;;19.50;47.54;99813.41;7289287;19;154241;-51
2022/02/17 01:12:27;;;;;;;;;;;;;;;19.49;47.51;99832.19;7283579;19;153160;-51
2022/02/17 01:14:54;;;;;;;;;;;;;;;19.47;47.87;99836.47;7282276;19;154489;-51
2022/02/17 01:17:21;;;;;;;;;;;;;;;19.47;47.63;99840.09;7282627;19;151757;-51
2022/02/17 01:19:48;;;;;;;;;;;;;;;19.44;47.43;99823.13;7283806;19;152740;-51
2022/02/17 01:22:15;;;;;;;;;;;;;;;19.44;47.66;99834.34;7278819;19;153561;-51
2022/02/17 01:24:42;;;;;;;;;;;;;;;19.44;47.38;99849.16;7281835;19;151779;-51
2022/02/17 01:27:09;;;;;;;;;;;;;;;19.44;47.54;99848.34;7283712;19;152317;-51
2022/02/17 01:29:36;;;;;;;;;;;;;;;19.41;47.26;99843.34;7281494;19;153485;-51
2022/02/17 01:32:03;;;;;;;;;;;;;;;19.39;47.48;99837.25;7291135;19;151895;-51
2022/02/17 01:34:32;;;;;;;;;;;;;;;19.36;47.36;99849.94;7281107;19;154299;-50
2022/02/17 01:36:59;;;;;;;;;;;;;;;19.35;47.69;99847.47;7283674;19;152277;-51
2022/02/17 01:39:26;;;;;;;;;;;;;;;19.36;47.40;99855.53;7281662;19;152861;-51
2022/02/17 01:41:53;;;;;;;;;;;;;;;19.34;47.54;99883.06;7279378;19;152619;-51
2022/02/17 01:44:20;;;;;;;;;;;;;;;19.31;47.61;99885.66;7277234;19;152598;-51
2022/02/17 01:46:47;;;;;;;;;;;;;;;19.30;47.40;99893.28;7279623;19;153956;-51
2022/02/17 01:49:14;;;;;;;;;;;;;;;19.29;47.54;99873.97;7280013;19;152589;-51
2022/02/17 01:51:40;;;;;;;;;;;;;;;19.29;47.22;99885.19;7280483;19;152295;-50
2022/02/17 01:54:08;;;;;;;;;;;;;;;19.27;47.45;99890.28;7289687;19;152860;-51
2022/02/17 01:56:37;;;;;;;;;;;;;;;19.24;47.46;99886.16;7283409;19;151872;-51
2022/02/17 01:59:05;;;;;;;;;;;;;;;19.22;47.29;99910.03;7282987;19;153769;-51
2022/02/17 02:01:33;;;;;;;;;;;;;;;19.20;46.84;99881.53;7280660;19;154062;-51
2022/02/17 02:04:00;;;;;;;;;;;;;;;19.17;47.18;99882.19;7280973;19;152357;-52
2022/02/17 02:06:27;;;;;;;;;;;;;;;19.16;47.27;99900.97;7280241;19;152590;-51
2022/02/17 02:08:54;;;;;;;;;;;;;;;19.16;46.89;99914.13;7282284;19;153634;-50
2022/02/17 02:11:21;;;;;;;;;;;;;;;19.14;46.80;99920.06;7277314;19;152082;-51
2022/02/17 02:13:48;;;;;;;;;;;;;;;19.13;47.11;99904.41;7281030;19;153123;-50
2022/02/17 02:16:15;;;;;;;;;;;;;;;19.09;46.90;99923.81;7288351;19;154231;-51
2022/02/17 02:18:43;;;;;;;;;;;;;;;19.11;47.45;99943.09;7281767;19;152883;-50
2022/02/17 02:21:10;;;;;;;;;;;;;;;19.08;47.32;99947.38;7281108;19;154161;-51
2022/02/17 02:23:38;;;;;;;;;;;;;;;19.08;46.95;99935.34;7277187;19;153512;-51
2022/02/17 02:26:07;;;;;;;;;;;;;;;19.06;46.79;99948.84;7282121;19;151706;-51
2022/02/17 02:28:35;;;;;;;;;;;;;;;19.03;46.73;99943.91;7278538;19;153934;-52
2022/02/17 02:31:02;;;;;;;;;;;;;;;19.06;47.13;99957.25;7280475;19;151899;-52
2022/02/17 02:33:29;;;;;;;;;;;;;;;19.01;47.13;99938.63;7282232;19;153123;-51
2022/02/17 02:35:56;;;;;;;;;;;;;;;19.03;47.21;99949.50;7269731;19;153924;-51
2022/02/17 02:38:43;;;;;;;;;;;;;;;19.00;46.80;99950.13;7289989;19;151893;-52
2022/02/17 02:41:10;;;;;;;;;;;;;;;18.97;46.76;99957.22;7277407;19;154536;-52
2022/02/17 02:43:38;;;;;;;;;;;;;;;18.97;47.01;99954.41;7282295;19;151935;-51
2022/02/17 02:46:06;;;;;;;;;;;;;;;18.96;47.05;99963.13;7277817;19;152556;-51
2022/02/17 02:48:35;;;;;;;;;;;;;;;18.96;47.02;99960.31;7279746;19;154041;-51
2022/02/17 02:51:06;;;;;;;;;;;;;;;18.92;47.15;99953.72;7280871;19;152179;-51
2022/02/17 02:53:33;;;;;;;;;;;;;;;18.92;47.09;99967.72;7279870;19;152246;-51
2022/02/17 02:56:00;;;;;;;;;;;;;;;18.90;46.83;99979.22;7279665;19;153851;-51
2022/02/17 02:58:27;;;;;;;;;;;;;;;18.91;47.16;99985.66;7279768;19;152440;-51
2022/02/17 03:00:57;;;;;;;;;;;;;;;18.89;46.87;99994.38;7287111;19;154180;-51
2022/02/17 03:03:24;;;;;;;;;;;;;;;18.88;46.95;99984.34;7286193;19;151977;-51
2022/02/17 03:05:52;;;;;;;;;;;;;;;18.87;47.18;99982.66;7287054;19;152993;-51
2022/02/17 03:08:19;;;;;;;;;;;;;;;18.86;47.04;99983.81;7277894;19;154211;-51
2022/02/17 03:10:46;;;;;;;;;;;;;;;18.84;47.32;99996.50;7285745;19;152119;-51
2022/02/17 03:13:15;;;;;;;;;;;;;;;18.83;47.25;100012.44;7288405;19;153579;-51
2022/02/17 03:15:42;;;;;;;;;;;;;;;18.82;47.10;100013.59;7286955;19;153427;-51
2022/02/17 03:18:09;;;;;;;;;;;;;;;18.83;47.21;100023.66;7286949;19;152681;-51
2022/02/17 03:20:55;;;;;;;;;;;;;;;18.80;46.96;100027.09;7293902;19;153166;-51
2022/02/17 03:23:33;;;;;;;;;;;;;;;18.78;47.09;100026.56;7286085;19;153267;-51
2022/02/17 03:26:01;;;;;;;;;;;;;;;18.78;47.43;100029.38;7288139;19;152862;-51
2022/02/17 03:28:30;;;;;;;;;;;;;;;18.79;47.09;100031.03;7287001;19;154359;-51
2022/02/17 03:31:00;;;;;;;;;;;;;;;18.78;47.14;100029.38;7286635;19;152382;-51
2022/02/17 03:33:27;;;;;;;;;;;;;;;18.77;47.41;100040.88;7288062;19;153726;-50
2022/02/17 03:35:54;;;;;;;;;;;;;;;18.78;47.47;100056.53;7285483;19;154988;-50
2022/02/17 03:38:21;;;;;;;;;;;;;;;18.82;47.79;100033.19;7285155;19;151764;-51
2022/02/17 03:40:48;;;;;;;;;;;;;;;18.75;47.31;100044.00;7287475;19;154613;-51
2022/02/17 03:43:20;;;;;;;;;;;;;;;18.74;47.43;100055.50;7294139;19;153735;-51
2022/02/17 03:45:52;;;;;;;;;;;;;;;18.70;47.08;100055.31;7286665;19;154243;-51
2022/02/17 03:48:18;;;;;;;;;;;;;;;18.69;47.35;100050.88;7286383;19;154634;-51
2022/02/17 03:50:45;;;;;;;;;;;;;;;18.70;47.23;100055.31;7285600;19;152381;-51
2022/02/17 03:53:12;;;;;;;;;;;;;;;18.69;47.67;100058.44;7287704;19;153003;-51
2022/02/17 03:55:40;;;;;;;;;;;;;;;18.66;47.29;100065.50;7284719;19;154345;-51
2022/02/17 03:58:07;;;;;;;;;;;;;;;18.65;47.30;100066.63;7286873;19;152365;-51
2022/02/17 04:00:34;;;;;;;;;;;;;;;18.66;47.78;100101.88;7286886;19;151896;-51
2022/02/17 04:03:02;;;;;;;;;;;;;;;18.65;47.16;100086.22;7283943;19;154404;-51
2022/02/17 04:05:30;;;;;;;;;;;;;;;18.64;47.78;100090.16;7295159;19;152057;-51
2022/02/17 04:07:59;;;;;;;;;;;;;;;18.62;47.45;100103.66;7286225;19;153339;-51
2022/02/17 04:10:26;;;;;;;;;;;;;;;18.60;47.49;100115.16;7285911;19;151898;-51
2022/02/17 04:12:53;;;;;;;;;;;;;;;18.60;47.30;100117.13;7282523;19;152927;-51
2022/02/17 04:15:20;;;;;;;;;;;;;;;18.59;47.04;100129.44;7283640;19;154201;-51
2022/02/17 04:17:47;;;;;;;;;;;;;;;18.57;47.06;100123.34;7285958;19;152295;-51
2022/02/17 04:20:15;;;;;;;;;;;;;;;18.54;47.00;100129.56;7286098;19;155682;-51
2022/02/17 04:22:42;;;;;;;;;;;;;;;18.55;47.18;100129.25;7285088;19;155656;-51
2022/02/17 04:25:09;;;;;;;;;;;;;;;18.54;46.94;100129.56;7287238;19;151855;-51
2022/02/17 04:27:36;;;;;;;;;;;;;;;18.54;47.49;100144.38;7291655;19;155733;-51
2022/02/17 04:30:04;;;;;;;;;;;;;;;18.53;47.21;100158.69;7284388;19;151959;-52
2022/02/17 04:32:31;;;;;;;;;;;;;;;18.51;47.18;100155.34;7282717;19;153386;-51
2022/02/17 04:34:58;;;;;;;;;;;;;;;18.51;47.14;100161.75;7285836;19;153802;-51
2022/02/17 04:37:25;;;;;;;;;;;;;;;18.51;46.98;100160.94;7286120;19;152113;-50
2022/02/17 04:39:52;;;;;;;;;;;;;;;18.50;47.40;100160.09;7284567;19;153172;-51
2022/02/17 04:42:19;;;;;;;;;;;;;;;18.50;47.61;100168.50;7284534;19;155876;-51
2022/02/17 04:44:47;;;;;;;;;;;;;;;18.49;47.15;100180.00;7283338;19;153679;-51
2022/02/17 04:47:15;;;;;;;;;;;;;;;18.48;47.58;100190.38;7285183;19;153287;-50
2022/02/17 04:49:42;;;;;;;;;;;;;;;18.47;47.43;100205.50;7289157;19;154790;-51
2022/02/17 04:52:11;;;;;;;;;;;;;;;18.47;47.16;100201.88;7281461;19;153428;-51
2022/02/17 04:54:38;;;;;;;;;;;;;;;18.44;47.62;100203.31;7284503;19;153314;-51
2022/02/17 04:57:06;;;;;;;;;;;;;;;18.44;47.56;100205.28;7283802;19;152239;-51
2022/02/17 04:59:34;;;;;;;;;;;;;;;18.43;48.00;100214.81;7285101;19;153719;-51
2022/02/17 05:02:02;;;;;;;;;;;;;;;18.43;47.98;100223.22;7283657;19;153316;-51
2022/02/17 05:04:29;;;;;;;;;;;;;;;18.44;47.74;100238.88;7286894;19;151760;-51
2022/02/17 05:06:56;;;;;;;;;;;;;;;18.40;47.52;100216.25;7281265;19;153619;-51
2022/02/17 05:09:23;;;;;;;;;;;;;;;18.39;47.74;100242.59;7282474;19;153542;-51
2022/02/17 05:11:51;;;;;;;;;;;;;;;18.40;47.83;100243.41;7291839;19;151997;-51
2022/02/17 05:14:17;;;;;;;;;;;;;;;18.38;47.99;100240.09;7284960;19;155219;-52
2022/02/17 05:16:44;;;;;;;;;;;;;;;18.39;48.24;100250.16;7285583;19;151835;-51
2022/02/17 05:19:11;;;;;;;;;;;;;;;18.38;47.94;100242.91;7285598;19;152742;-51
2022/02/17 05:21:38;;;;;;;;;;;;;;;18.38;48.16;100240.94;7280528;19;154220;-51
2022/02/17 05:24:06;;;;;;;;;;;;;;;18.38;48.30;100254.06;7285087;19;152349;-50
2022/02/17 05:26:35;;;;;;;;;;;;;;;18.37;48.39;100277.59;7281368;19;152211;-51
2022/02/17 05:29:02;;;;;;;;;;;;;;;18.36;48.63;100289.91;7282899;19;153815;-51
2022/02/17 05:31:30;;;;;;;;;;;;;;;18.36;48.85;100285.16;7291585;19;151906;-51
2022/02/17 05:33:58;;;;;;;;;;;;;;;18.36;48.70;100301.09;7283878;19;155662;-51
2022/02/17 05:36:25;;;;;;;;;;;;;;;18.38;48.77;100310.84;7284222;19;151688;-51
2022/02/17 05:38:52;;;;;;;;;;;;;;;18.36;48.61;100309.47;7285164;19;151794;-51
2022/02/17 05:41:19;;;;;;;;;;;;;;;18.35;48.78;100314.25;7283611;19;153550;-50
2022/02/17 05:43:46;;;;;;;;;;;;;;;18.35;49.17;100319.03;7285465;19;151941;-51
2022/02/17 05:46:13;;;;;;;;;;;;;;;18.31;49.06;100324.38;7285345;19;152438;-51
2022/02/17 05:48:40;;;;;;;;;;;;;;;18.31;49.01;100343.97;7281162;19;154443;-51
2022/02/17 05:51:07;;;;;;;;;;;;;;;18.35;48.99;100341.41;7283023;19;151772;-51
2022/02/17 05:53:34;;;;;;;;;;;;;;;18.43;49.21;100349.06;7291111;19;152110;-51
2022/02/17 05:56:01;;;;;;;;;;;;;;;18.47;49.16;100347.31;7284298;19;151823;-51
2022/02/17 05:58:27;;;;;;;;;;;;;;;18.50;49.71;100335.50;7282756;19;155516;-51
2022/02/17 06:00:54;;;;;;;;;;;;;;;18.53;49.62;100335.72;7283769;19;153503;-51
2022/02/17 06:03:21;;;;;;;;;;;;;;;18.59;49.39;100344.88;7282628;19;152392;-51
2022/02/17 06:05:50;;;;;;;;;;;;;;;18.62;49.56;100341.47;7281328;19;153121;-51
2022/02/17 06:08:17;;;;;;;;;;;;;;;18.68;49.73;100340.19;7280615;19;154571;-51
2022/02/17 06:10:44;;;;;;;;;;;;;;;18.75;49.81;100353.78;7278973;19;152127;-51
2022/02/17 06:13:11;;;;;;;;;;;;;;;18.81;49.79;100355.31;7281062;19;152552;-52
2022/02/17 06:15:39;;;;;;;;;;;;;;;18.87;50.28;100360.53;7289512;19;153432;-51
2022/02/17 06:18:06;;;;;;;;;;;;;;;18.95;50.37;100370.97;7283063;19;153573;-51
2022/02/17 06:20:33;;;;;;;;;;;;;;;19.02;50.41;100377.00;7282588;19;153532;-51
2022/02/17 06:23:00;;;;;;;;;;;;;;;19.10;50.49;100372.63;7280633;19;152256;-51
2022/02/17 06:25:28;;;;;;;;;;;;;;;19.17;50.27;100375.81;7282920;19;155353;-51
2022/02/17 06:27:55;;;;;;;;;;;;;;;19.24;49.95;100378.22;7281278;19;154086;-51
2022/02/17 06:30:23;;;;;;;;;;;;;;;19.32;50.03;100380.28;7281708;19;152748;-51
2022/02/17 06:32:52;;;;;;;;;;;;;;;19.39;49.63;100377.88;7279001;19;152630;-51
2022/02/17 06:35:26;;;;;;;;;;;;;;;19.45;49.30;100385.88;7282389;19;152665;-51
2022/02/17 06:37:53;;;;;;;;;;;;;;;19.53;49.42;100398.34;7285572;19;152004;-51
2022/02/17 06:40:20;;;;;;;;;;;;;;;19.59;48.95;100387.81;7281285;19;154391;-51
2022/02/17 06:42:49;;;;;;;;;;;;;;;19.66;49.56;100391.03;7280698;19;152112;-51
2022/02/17 06:45:17;;;;;;;;;;;;;;;19.72;49.10;100386.94;7278614;19;152251;-52
2022/02/17 06:47:43;;;;;;;;;;;;;;;19.79;48.61;100395.75;7281579;19;152877;-51
2022/02/17 06:50:14;;;;;;;;;;;;;;;19.85;48.44;100411.31;7282898;19;151667;-52
2022/02/17 06:52:42;;;;;;;;;;;;;;;19.95;48.46;100405.44;7278858;19;153373;-51
2022/02/17 06:55:10;;;;;;;;;;;;;;;20.04;48.07;100405.50;7281482;19;153556;-52
2022/02/17 06:57:48;;;;;;;;;;;;;;;19.86;42.16;100410.97;7283193;19;151848;-51
2022/02/17 07:00:16;;;;;;;;;;;;;;;19.92;44.21;100420.94;7287105;19;152613;-51
2022/02/17 07:02:53;;;;;;;;;;;;;;;20.03;45.26;100427.13;7281815;19;152465;-51
2022/02/17 07:05:33;;;;;;;;;;;;;;;20.13;45.83;100449.31;7283184;19;152932;-52
2022/02/17 07:08:02;;;;;;;;;;;;;;;20.22;45.98;100440.94;7280964;19;154060;-51
2022/02/17 07:13:20;;;;;;;;;;;;;;;20.34;46.04;100456.13;7279557;19;153914;-51
2022/02/17 07:15:51;;;;;;;;;;;;;;;20.43;45.77;100461.78;7281227;19;155030;-52
2022/02/17 07:18:25;;;;;;;;;;;;;;;20.48;45.96;100464.47;7281107;19;151981;-50
2022/02/17 07:20:54;;;;;;;;;;;;;;;20.52;45.81;100471.09;7281628;19;152889;-50
2022/02/17 07:23:24;;;;;;;;;;;;;;;20.56;45.62;100479.69;7287907;19;151868;-50
2022/02/17 07:25:53;;;;;;;;;;;;;;;20.63;45.46;100480.06;7278940;19;152644;-51
2022/02/17 07:28:25;;;;;;;;;;;;;;;20.66;45.29;100477.47;7280536;19;152409;-50
2022/02/17 07:30:57;;;;;;;;;;;;;;;20.72;45.56;100490.19;7281828;19;152081;-50
2022/02/17 07:33:25;;;;;;;;;;;;;;;20.74;44.97;100490.72;7280169;19;153426;-51
2022/02/17 07:35:52;;;;;;;;;;;;;;;20.78;45.25;100505.75;7279772;19;154167;-49
2022/02/17 07:38:39;;;;;;;;;;;;;;;20.84;44.77;100518.53;7280210;19;152004;-53
2022/02/17 07:41:06;;;;;;;;;;;;;;;20.87;44.55;100522.66;7280649;19;152288;-50
2022/02/17 07:43:34;;;;;;;;;;;;;;;20.92;44.70;100530.97;7288466;19;154097;-50
2022/02/17 07:46:01;;;;;;;;;;;;;;;20.98;44.81;100526.03;7280097;19;153049;-50
2022/02/17 07:48:28;;;;;;;;;;;;;;;21.01;44.80;100534.66;7283163;19;154039;-50
2022/02/17 07:50:56;;;;;;;;;;;;;;;21.04;44.53;100547.19;7288678;19;151703;-49
2022/02/17 07:53:23;;;;;;;;;;;;;;;21.07;44.47;100552.19;7286146;19;152909;-51
2022/02/17 07:55:51;;;;;;;;;;;;;;;21.09;44.23;100556.31;7286764;19;154472;-51
2022/02/17 07:58:19;;;;;;;;;;;;;;;21.12;44.43;100563.31;7286131;19;151946;-50
2022/02/17 08:00:46;;;;;;;;;;;;;;;21.12;44.21;100557.69;7287940;19;155237;-51
2022/02/17 08:03:15;;;;;;;;;;;;;;;21.15;43.95;100571.09;7286717;19;153944;-50
2022/02/17 08:05:42;;;;;;;;;;;;;;;21.15;44.03;100573.91;7294580;19;151969;-51
2022/02/17 08:08:10;;;;;;;;;;;;;;;21.17;43.96;100574.41;7286944;19;154086;-51
2022/02/17 08:10:37;;;;;;;;;;;;;;;21.17;44.13;100574.41;7285695;19;151710;-51
2022/02/17 08:13:06;;;;;;;;;;;;;;;21.17;44.17;100589.28;7284868;19;152924;-51
2022/02/17 08:15:33;;;;;;;;;;;;;;;21.16;43.69;100593.28;7284526;19;153432;-51
2022/02/17 08:18:01;;;;;;;;;;;;;;;21.17;43.74;100596.88;7286710;19;152397;-51
2022/02/17 08:20:29;;;;;;;;;;;;;;;21.17;44.17;100606.16;7287639;19;152098;-51
2022/02/17 08:22:57;;;;;;;;;;;;;;;21.16;43.96;100617.72;7285581;19;153447;-51
2022/02/17 08:25:25;;;;;;;;;;;;;;;21.15;43.76;100630.94;7284915;19;152010;-51
2022/02/17 08:27:52;;;;;;;;;;;;;;;21.15;43.74;100627.28;7293386;19;152854;-51
2022/02/17 08:30:22;;;;;;;;;;;;;;;21.13;44.04;100619.19;7287595;19;152092;-51
2022/02/17 08:32:53;;;;;;;;;;;;;;;21.11;43.68;100624.28;7286003;19;153453;-51
2022/02/17 08:35:23;;;;;;;;;;;;;;;21.10;43.86;100614.19;7283763;19;153367;-51
2022/02/17 08:37:50;;;;;;;;;;;;;;;21.09;43.55;100618.13;7284912;19;152253;-51
2022/02/17 08:40:17;;;;;;;;;;;;;;;21.08;43.75;100615.63;7285861;19;151906;-51
2022/02/17 08:42:45;;;;;;;;;;;;;;;21.05;43.80;100610.66;7285763;19;154451;-51
2022/02/17 08:45:12;;;;;;;;;;;;;;;21.04;43.85;100617.44;7286790;19;151824;-51
2022/02/17 08:47:40;;;;;;;;;;;;;;;21.03;43.83;100624.22;7284917;19;152980;-50
2022/02/17 08:50:09;;;;;;;;;;;;;;;21.01;43.42;100618.91;7291423;19;154438;-50
2022/02/17 08:52:37;;;;;;;;;;;;;;;21.00;43.46;100630.44;7285207;19;152875;-51
2022/02/17 08:55:06;;;;;;;;;;;;;;;20.98;43.41;100632.78;7284485;19;154109;-51
2022/02/17 08:57:33;;;;;;;;;;;;;;;20.96;43.50;100626.63;7285890;19;151723;-51
2022/02/17 09:00:00;;;;;;;;;;;;;;;20.95;43.66;100653.03;7284569;19;152893;-50
2022/02/17 09:02:29;;;;;;;;;;;;;;;20.93;43.52;100660.97;7283255;19;154159;-50
2022/02/17 09:04:57;;;;;;;;;;;;;;;20.90;43.75;100662.44;7286181;19;152230;-51
2022/02/17 09:07:24;;;;;;;;;;;;;;;20.89;43.49;100660.78;7285884;19;153430;-50
2022/02/17 09:09:51;;;;;;;;;;;;;;;20.86;43.59;100670.66;7285086;19;153661;-51
2022/02/17 09:12:19;;;;;;;;;;;;;;;20.85;43.82;100687.81;7291384;19;151859;-51
2022/02/17 09:14:46;;;;;;;;;;;;;;;20.82;43.81;100685.66;7285581;19;154280;-50
2022/02/17 09:17:14;;;;;;;;;;;;;;;20.80;43.34;100699.19;7285793;19;151748;-51
2022/02/17 09:19:42;;;;;;;;;;;;;;;20.79;43.42;100700.34;7285394;19;152971;-51
2022/02/17 09:22:09;;;;;;;;;;;;;;;20.76;43.43;100684.94;7283778;19;156095;-50
2022/02/17 09:24:36;;;;;;;;;;;;;;;20.74;43.44;100690.06;7286200;19;152058;-51
2022/02/17 09:27:03;;;;;;;;;;;;;;;20.71;43.63;100696.31;7285706;19;152129;-51
2022/02/17 09:29:33;;;;;;;;;;;;;;;20.69;43.69;100709.81;7283674;19;154154;-51
2022/02/17 09:32:20;;;;;;;;;;;;;;;20.68;43.67;100712.94;7290154;19;151952;-50
2022/02/17 09:34:48;;;;;;;;;;;;;;;20.65;43.53;100716.38;7284984;19;154825;-51
2022/02/17 09:37:15;;;;;;;;;;;;;;;20.63;43.59;100716.69;7284017;19;152555;-51
2022/02/17 09:39:43;;;;;;;;;;;;;;;20.62;43.92;100731.91;7283710;19;153079;-51
2022/02/17 09:42:10;;;;;;;;;;;;;;;20.58;43.52;100750.47;7284678;19;153779;-51
2022/02/17 09:44:38;;;;;;;;;;;;;;;20.56;43.64;100746.34;7283285;19;151895;-51
2022/02/17 09:47:07;;;;;;;;;;;;;;;20.54;43.43;100752.25;7285677;19;152066;-51
2022/02/17 09:49:38;;;;;;;;;;;;;;;20.52;43.77;100771.41;7283662;19;153571;-51
2022/02/17 09:52:06;;;;;;;;;;;;;;;20.50;43.89;100793.31;7282399;19;152002;-51
2022/02/17 09:54:34;;;;;;;;;;;;;;;20.48;43.54;100775.16;7288798;19;153323;-51
2022/02/17 09:57:02;;;;;;;;;;;;;;;20.47;43.58;100788.34;7285445;19;151646;-51
2022/02/17 09:59:31;;;;;;;;;;;;;;;20.45;43.41;100809.44;7284361;19;153120;-50
2022/02/17 10:02:02;;;;;;;;;;;;;;;20.42;43.99;100805.28;7281644;19;153992;-51
2022/02/17 10:04:31;;;;;;;;;;;;;;;20.40;43.58;100799.13;7283720;19;151905;-52
2022/02/17 10:07:00;;;;;;;;;;;;;;;20.40;43.93;100807.56;7285139;19;154596;-51
2022/02/17 10:09:37;;;;;;;;;;;;;;;20.39;44.03;100801.13;7279981;19;153895;-51
2022/02/17 10:12:05;;;;;;;;;;;;;;;20.36;43.77;100815.75;7281272;19;151840;-51
2022/02/17 10:14:32;;;;;;;;;;;;;;;20.34;43.73;100826.47;7280645;19;153679;-51
2022/02/17 10:16:59;;;;;;;;;;;;;;;20.31;43.29;100855.16;7289962;19;153925;-52
2022/02/17 10:19:28;;;;;;;;;;;;;;;20.27;43.30;100830.78;7284822;19;152616;-51
2022/02/17 10:22:05;;;;;;;;;;;;;;;20.26;43.04;100831.97;7280602;19;154451;-51
2022/02/17 10:24:36;;;;;;;;;;;;;;;20.23;43.06;100847.41;7284819;19;152163;-51
2022/02/17 10:27:06;;;;;;;;;;;;;;;20.21;43.43;100841.28;7283394;19;152697;-51
2022/02/17 10:29:34;;;;;;;;;;;;;;;20.19;43.34;100843.56;7282034;19;152178;-51
2022/02/17 10:32:04;;;;;;;;;;;;;;;20.16;42.99;100847.00;7282583;19;151853;-51
2022/02/17 10:34:31;;;;;;;;;;;;;;;20.15;43.11;100850.94;7280393;19;153342;-51
2022/02/17 10:36:59;;;;;;;;;;;;;;;20.13;42.86;100863.59;7279543;19;153609;-51
2022/02/17 10:39:26;;;;;;;;;;;;;;;20.12;42.94;100854.38;7291511;19;151443;-51
2022/02/17 10:41:55;;;;;;;;;;;;;;;20.10;43.02;100858.59;7280956;19;154115;-50
2022/02/17 10:44:28;;;;;;;;;;;;;;;20.06;42.86;100883.63;7283205;19;151963;-51
2022/02/17 10:46:56;;;;;;;;;;;;;;;20.02;42.72;100862.97;7280988;19;152682;-51
2022/02/17 10:49:24;;;;;;;;;;;;;;;20.04;42.95;100855.06;7281891;19;155225;-51
2022/02/17 10:51:51;;;;;;;;;;;;;;;20.04;42.71;100863.47;7281745;19;151936;-51
2022/02/17 10:54:20;;;;;;;;;;;;;;;20.06;43.16;100880.00;7281580;19;153662;-51
2022/02/17 10:56:51;;;;;;;;;;;;;;;20.09;42.70;100869.00;7281169;19;154875;-51
2022/02/17 11:01:57;;;;;;;;;;;;;;;20.08;40.94;100877.72;7288028;19;152835;-51
2022/02/17 11:04:26;;;;;;;;;;;;;;;20.10;40.57;100876.28;7278396;19;152121;-51
2022/02/17 11:06:53;;;;;;;;;;;;;;;20.16;40.69;100879.81;7283059;19;153047;-51
2022/02/17 11:09:21;;;;;;;;;;;;;;;20.22;40.43;100878.56;7281935;19;153487;-51
2022/02/17 11:11:52;;;;;;;;;;;;;;;20.27;40.52;100881.28;7282242;19;152356;-52
2022/02/17 11:14:38;;;;;;;;;;;;;;;20.30;40.33;100878.75;7279697;19;153691;-52
2022/02/17 11:17:06;;;;;;;;;;;;;;;20.35;40.18;100881.44;7281725;19;153670;-52
2022/02/17 11:19:49;;;;;;;;;;;;;;;20.38;40.47;100894.88;7282359;19;151726;-52
2022/02/17 11:22:19;;;;;;;;;;;;;;;20.42;39.80;100900.69;7279376;19;153035;-51
2022/02/17 11:24:47;;;;;;;;;;;;;;;20.47;39.97;100894.16;7294976;19;154325;-51
2022/02/17 11:27:14;;;;;;;;;;;;;;;20.50;39.80;100901.94;7288701;19;153541;-51
2022/02/17 11:29:43;;;;;;;;;;;;;;;20.60;40.35;100896.16;7286249;19;153734;-51
2022/02/17 11:32:13;;;;;;;;;;;;;;;20.60;40.26;100894.19;7286521;19;152205;-51
2022/02/17 11:34:43;;;;;;;;;;;;;;;20.65;40.08;100885.66;7287020;19;153381;-52
2022/02/17 11:37:20;;;;;;;;;;;;;;;20.72;40.35;100890.84;7286143;19;153970;-51
2022/02/17 11:39:54;;;;;;;;;;;;;;;20.78;40.39;100893.25;7287554;19;152650;-51
2022/02/17 11:42:31;;;;;;;;;;;;;;;20.82;40.50;100891.47;7287625;19;153041;-51
2022/02/17 11:45:11;;;;;;;;;;;;;;;20.91;40.10;100894.38;7295529;19;153940;-51
2022/02/17 11:47:57;;;;;;;;;;;;;;;20.93;39.83;100903.34;7287393;19;153357;-51
2022/02/17 11:50:34;;;;;;;;;;;;;;;20.96;39.71;100894.28;7286739;19;154006;-51
2022/02/17 11:53:11;;;;;;;;;;;;;;;21.00;39.75;100897.28;7287871;19;152894;-53
2022/02/17 11:55:38;;;;;;;;;;;;;;;21.02;39.64;100883.78;7288372;19;153648;-51
2022/02/17 11:58:25;;;;;;;;;;;;;;;21.04;39.00;100895.53;7280425;19;153505;-51
2022/02/17 12:00:52;;;;;;;;;;;;;;;21.05;38.69;100894.38;7282848;19;153068;-51
2022/02/17 12:03:55;;;;;;;;;;;;;;;21.05;38.40;100888.75;7284448;19;152765;-51
2022/02/17 12:06:45;;;;;;;;;;;;;;;21.06;38.59;100880.03;7285627;19;155414;-51
2022/02/17 12:09:22;;;;;;;;;;;;;;;21.08;39.07;100894.59;7295064;19;152540;-51
2022/02/17 12:12:10;;;;;;;;;;;;;;;21.18;39.12;100890.75;7285877;19;153590;-53
2022/02/17 12:14:49;;;;;;;;;;;;;;;21.13;39.63;100879.63;7283098;19;154295;-52
2022/02/17 12:17:27;;;;;;;;;;;;;;;21.11;39.03;100865.03;7274407;19;154812;-53
2022/02/17 12:20:05;;;;;;;;;;;;;;;21.18;38.81;100868.28;7285242;19;154199;-52
2022/02/17 12:22:34;;;;;;;;;;;;;;;21.13;39.27;100865.56;7282594;19;151753;-52
2022/02/17 12:25:12;;;;;;;;;;;;;;;21.10;39.83;100855.78;7285480;19;153394;-51
2022/02/17 12:27:46;;;;;;;;;;;;;;;21.11;39.72;100874.31;7284242;19;153986;-51
2022/02/17 12:30:21;;;;;;;;;;;;;;;21.09;39.33;100884.19;7286853;19;151682;-51
2022/02/17 12:33:00;;;;;;;;;;;;;;;21.04;39.22;100881.47;7291908;19;153505;-51
2022/02/17 12:35:32;;;;;;;;;;;;;;;21.04;39.59;100871.06;7277813;19;152367;-51
2022/02/17 12:38:00;;;;;;;;;;;;;;;21.00;39.67;100875.66;7286058;19;153602;-51
2022/02/17 12:40:29;;;;;;;;;;;;;;;20.97;39.21;100873.50;7284352;19;154448;-51
2022/02/17 12:42:57;;;;;;;;;;;;;;;20.96;39.00;100866.19;7286110;19;152643;-51
2022/02/17 12:45:34;;;;;;;;;;;;;;;20.94;38.86;100850.81;7285237;19;153617;-51